createdAt,value
2019-05-01T00:01:00.455Z,100632.52
2019-05-01T00:04:12.361Z,100631.19
2019-05-01T00:06:44.962Z,100625.12
2019-05-01T00:09:13.805Z,100624.25
2019-05-01T00:11:42.982Z,100618.55
2019-05-01T00:14:11.832Z,100619.88
2019-05-01T00:16:40.808Z,100619.48
2019-05-01T00:21:57.760Z,100618.38
2019-05-01T00:24:26.811Z,100619.97
2019-05-01T00:26:55.794Z,100619.97
2019-05-01T00:29:24.808Z,100615.52
2019-05-01T00:31:53.733Z,100616.93
2019-05-01T00:34:22.772Z,100617.48
2019-05-01T00:36:51.728Z,100615.86
2019-05-01T00:39:20.614Z,100614.16
2019-05-01T00:41:49.669Z,100605.77
2019-05-01T00:44:18.604Z,100612.50
2019-05-01T00:46:47.538Z,100601.50
2019-05-01T00:49:16.557Z,100597.13
2019-05-01T00:51:45.831Z,100604.23
2019-05-01T00:54:14.847Z,100597.68
2019-05-01T00:57:08.691Z,100602.13
2019-05-01T00:59:47.141Z,100591.98
2019-05-01T01:02:34.908Z,100588.09
2019-05-01T01:05:03.981Z,100586.76
2019-05-01T01:07:32.925Z,100584.19
2019-05-01T01:10:01.999Z,100586.35
2019-05-01T01:12:31.045Z,100585.98
2019-05-01T01:15:00.007Z,100585.98
2019-05-01T01:17:29.025Z,100592.25
2019-05-01T01:19:58.016Z,100587.94
2019-05-01T01:22:27.056Z,100584.03
2019-05-01T01:24:56.091Z,100585.86
2019-05-01T01:27:25.540Z,100578.72
2019-05-01T01:29:55.108Z,100579.30
2019-05-01T01:32:24.024Z,100577.10
2019-05-01T01:34:54.179Z,100577.56
2019-05-01T01:37:23.196Z,100574.53
2019-05-01T01:39:53.002Z,100568.34
2019-05-01T01:42:22.127Z,100566.18
2019-05-01T01:45:07.583Z,100555.14
2019-05-01T01:47:39.091Z,100554.69
2019-05-01T01:50:08.177Z,100554.31
2019-05-01T01:52:37.176Z,100548.58
2019-05-01T01:55:06.264Z,100552.11
2019-05-01T01:57:35.192Z,100554.77
2019-05-01T02:00:06.071Z,100551.82
2019-05-01T02:02:46.994Z,100548.67
2019-05-01T02:05:18.320Z,100553.23
2019-05-01T02:07:47.252Z,100547.05
2019-05-01T02:10:16.328Z,100553.70
2019-05-01T02:12:45.267Z,100545.81
2019-05-01T02:15:14.255Z,100551.59
2019-05-01T02:17:43.313Z,100551.67
2019-05-01T02:20:12.295Z,100557.94
2019-05-01T02:22:41.446Z,100554.91
2019-05-01T02:25:11.861Z,100553.95
2019-05-01T02:27:49.714Z,100553.00
2019-05-01T02:30:20.355Z,100546.94
2019-05-01T02:32:49.446Z,100553.75
2019-05-01T02:35:18.424Z,100548.03
2019-05-01T02:37:47.761Z,100545.00
2019-05-01T02:40:47.451Z,100534.83
2019-05-01T02:43:17.219Z,100532.26
2019-05-01T02:45:46.348Z,100524.86
2019-05-01T02:48:36.476Z,100512.84
2019-05-01T02:51:05.449Z,100528.44
2019-05-01T02:53:36.523Z,100522.84
2019-05-01T02:56:21.495Z,100524.17
2019-05-01T02:58:50.886Z,100523.80
2019-05-01T03:01:19.905Z,100525.58
2019-05-01T03:03:49.041Z,100525.58
2019-05-01T03:06:17.919Z,100524.25
2019-05-01T03:08:47.087Z,100520.73
2019-05-01T03:11:16.049Z,100520.73
2019-05-01T03:13:45.010Z,100512.02
2019-05-01T03:16:14.117Z,100520.81
2019-05-01T03:18:47.538Z,100522.14
2019-05-01T03:21:34.358Z,100525.29
2019-05-01T03:24:09.929Z,100525.75
2019-05-01T03:26:39.066Z,100528.87
2019-05-01T03:29:08.307Z,100522.31
2019-05-01T03:31:37.342Z,100525.75
2019-05-01T03:34:06.613Z,100524.59
2019-05-01T03:36:35.673Z,100522.48
2019-05-01T03:39:05.896Z,100515.55
2019-05-01T03:41:34.753Z,100512.03
2019-05-01T03:44:04.354Z,100514.31
2019-05-01T03:46:33.236Z,100510.78
2019-05-01T03:49:02.243Z,100501.98
2019-05-01T03:51:31.299Z,100505.02
2019-05-01T03:54:00.239Z,100503.85
2019-05-01T03:56:29.324Z,100507.84
2019-05-01T03:58:58.241Z,100511.36
2019-05-01T04:01:55.308Z,100504.80
2019-05-01T04:04:27.035Z,100507.55
2019-05-01T04:06:56.285Z,100500.83
2019-05-01T04:09:25.314Z,100496.84
2019-05-01T04:11:54.382Z,100492.94
2019-05-01T04:14:23.312Z,100505.64
2019-05-01T04:16:58.229Z,100502.61
2019-05-01T04:19:27.110Z,100501.37
2019-05-01T04:22:05.509Z,100501.74
2019-05-01T04:24:34.452Z,100502.70
2019-05-01T04:27:05.257Z,100501.08
2019-05-01T04:29:40.563Z,100499.25
2019-05-01T04:32:20.058Z,100509.88
2019-05-01T04:34:57.057Z,100502.86
2019-05-01T04:37:26.366Z,100496.02
2019-05-01T04:39:55.496Z,100504.19
2019-05-01T04:42:24.426Z,100502.86
2019-05-01T04:44:53.462Z,100508.17
2019-05-01T04:47:22.385Z,100508.26
2019-05-01T04:49:51.454Z,100509.13
2019-05-01T04:52:20.376Z,100507.02
2019-05-01T04:54:49.514Z,100520.67
2019-05-01T04:57:18.512Z,100520.67
2019-05-01T04:59:47.562Z,100522.00
2019-05-01T05:02:21.517Z,100514.90
2019-05-01T05:04:50.465Z,100521.45
2019-05-01T05:07:19.323Z,100517.55
2019-05-01T05:09:48.196Z,100516.60
2019-05-01T05:12:42.130Z,100516.14
2019-05-01T05:15:27.180Z,100512.16
2019-05-01T05:17:56.122Z,100516.52
2019-05-01T05:20:25.072Z,100516.52
2019-05-01T05:22:54.157Z,100518.25
2019-05-01T05:25:23.239Z,100517.30
2019-05-01T05:27:52.558Z,100518.63
2019-05-01T05:30:21.709Z,100518.55
2019-05-01T05:32:51.090Z,100517.59
2019-05-01T05:35:20.287Z,100519.79
2019-05-01T05:38:26.473Z,100521.98
2019-05-01T05:40:55.377Z,100520.58
2019-05-01T05:43:24.501Z,100516.59
2019-05-01T05:45:53.364Z,100521.90
2019-05-01T05:48:22.368Z,100519.16
2019-05-01T05:51:01.785Z,100523.98
2019-05-01T05:53:32.792Z,100523.52
2019-05-01T05:56:04.129Z,100527.05
2019-05-01T05:58:46.858Z,100529.70
2019-05-01T06:01:32.404Z,100526.47
2019-05-01T06:04:18.810Z,100522.81
2019-05-01T06:06:58.930Z,100529.19
2019-05-01T06:09:37.223Z,100528.44
2019-05-01T06:12:23.857Z,100537.20
2019-05-01T06:15:26.884Z,100537.57
2019-05-01T06:18:14.883Z,100539.31
2019-05-01T06:23:42.403Z,100534.20
2019-05-01T06:26:36.794Z,100525.27
2019-05-01T06:29:03.564Z,100531.37
2019-05-01T06:31:32.903Z,100534.89
2019-05-01T06:34:02.329Z,100528.16
2019-05-01T06:36:31.549Z,100532.44
2019-05-01T06:39:00.662Z,100524.84
2019-05-01T06:41:35.797Z,100529.98
2019-05-01T06:44:09.805Z,100534.58
2019-05-01T06:46:58.291Z,100531.28
2019-05-01T06:49:48.987Z,100535.47
2019-05-01T06:52:24.991Z,100528.73
2019-05-01T06:54:53.613Z,100527.88
2019-05-01T06:57:21.998Z,100532.27
2019-05-01T06:59:51.018Z,100530.70
2019-05-01T07:02:20.134Z,100532.90
2019-05-01T07:04:49.130Z,100535.09
2019-05-01T07:07:25.082Z,100528.54
2019-05-01T07:09:51.068Z,100529.45
2019-05-01T07:12:24.005Z,100528.54
2019-05-01T07:14:52.440Z,100532.44
2019-05-01T07:17:21.537Z,100532.03
2019-05-01T07:20:18.582Z,100523.69
2019-05-01T07:22:47.592Z,100523.13
2019-05-01T07:25:16.686Z,100520.94
2019-05-01T07:27:45.778Z,100518.73
2019-05-01T07:30:22.320Z,100519.14
2019-05-01T07:32:51.396Z,100521.72
2019-05-01T07:35:20.361Z,100520.77
2019-05-01T07:37:49.283Z,100521.05
2019-05-01T07:40:20.783Z,100530.58
2019-05-01T07:42:52.025Z,100526.02
2019-05-01T07:45:33.942Z,100524.69
2019-05-01T07:48:05.604Z,100527.25
2019-05-01T07:50:33.613Z,100526.24
2019-05-01T07:53:02.618Z,100524.73
2019-05-01T07:55:37.753Z,100525.80
2019-05-01T07:58:10.602Z,100517.19
2019-05-01T08:01:07.743Z,100520.44
2019-05-01T08:03:38.179Z,100524.16
2019-05-01T08:06:07.678Z,100520.86
2019-05-01T08:08:39.574Z,100515.27
2019-05-01T08:11:10.125Z,100517.25
2019-05-01T08:13:38.025Z,100516.98
2019-05-01T08:16:08.680Z,100517.11
2019-05-01T08:18:44.133Z,100515.59
2019-05-01T08:21:26.142Z,100512.17
2019-05-01T08:23:54.676Z,100508.86
2019-05-01T08:26:23.685Z,100519.23
2019-05-01T08:29:08.878Z,100513.62
2019-05-01T08:32:03.447Z,100513.91
2019-05-01T08:34:34.212Z,100515.92
2019-05-01T08:37:03.162Z,100513.16
2019-05-01T08:39:32.164Z,100513.34
2019-05-01T08:42:02.930Z,100510.59
2019-05-01T08:44:34.296Z,100514.40
2019-05-01T08:47:12.708Z,100513.75
2019-05-01T08:49:55.203Z,100511.86
2019-05-01T08:52:24.253Z,100509.47
2019-05-01T08:54:54.828Z,100506.62
2019-05-01T08:57:23.840Z,100510.89
2019-05-01T08:59:55.650Z,100505.00
2019-05-01T09:02:23.624Z,100509.37
2019-05-01T09:05:02.122Z,100507.48
2019-05-01T09:07:25.206Z,100503.39
2019-05-01T09:09:55.248Z,100502.83
2019-05-01T09:12:24.128Z,100501.77
2019-05-01T09:14:53.036Z,100499.48
2019-05-01T09:17:22.300Z,100496.25
2019-05-01T09:19:51.445Z,100500.45
2019-05-01T09:22:20.405Z,100495.03
2019-05-01T09:24:49.626Z,100490.02
2019-05-01T09:27:55.463Z,100494.37
2019-05-01T09:30:31.097Z,100487.16
2019-05-01T09:33:00.131Z,100491.42
2019-05-01T09:35:29.043Z,100484.66
2019-05-01T09:37:58.018Z,100480.58
2019-05-01T09:40:27.507Z,100476.48
2019-05-01T09:42:59.453Z,100477.81
2019-05-01T09:45:27.530Z,100484.37
2019-05-01T09:47:56.584Z,100480.38
2019-05-01T09:50:25.860Z,100484.28
2019-05-01T09:53:07.198Z,100481.05
2019-05-01T09:55:54.960Z,100486.28
2019-05-01T09:58:24.012Z,100487.22
2019-05-01T10:00:55.975Z,100484.35
2019-05-01T10:03:24.882Z,100481.49
2019-05-01T10:05:53.669Z,100480.16
2019-05-01T10:08:22.526Z,100480.93
2019-05-01T10:10:51.667Z,100472.84
2019-05-01T10:13:22.511Z,100467.87
2019-05-01T10:15:51.421Z,100468.27
2019-05-01T10:18:20.447Z,100473.10
2019-05-01T10:20:49.466Z,100465.52
2019-05-01T10:23:18.468Z,100470.34
2019-05-01T10:25:51.457Z,100462.25
2019-05-01T10:28:50.105Z,100455.12
2019-05-01T10:31:31.992Z,100461.69
2019-05-01T10:34:09.170Z,100461.69
2019-05-01T10:36:43.221Z,100461.12
2019-05-01T10:39:15.987Z,100458.45
2019-05-01T10:41:46.281Z,100457.02
2019-05-01T10:44:13.488Z,100451.69
2019-05-01T10:46:42.592Z,100443.70
2019-05-01T10:49:11.869Z,100445.39
2019-05-01T10:51:40.823Z,100441.39
2019-05-01T10:54:09.872Z,100436.94
2019-05-01T10:56:38.898Z,100437.77
2019-05-01T10:59:07.778Z,100439.09
2019-05-01T11:01:54.930Z,100432.83
2019-05-01T11:04:23.890Z,100426.53
2019-05-01T11:06:52.971Z,100425.57
2019-05-01T11:09:21.891Z,100420.73
2019-05-01T11:11:50.897Z,100416.24
2019-05-01T11:14:19.972Z,100412.25
2019-05-01T11:16:48.921Z,100410.45
2019-05-01T11:19:17.981Z,100407.21
2019-05-01T11:21:46.913Z,100402.34
2019-05-01T11:24:16.021Z,100407.11
2019-05-01T11:26:44.922Z,100404.45
2019-05-01T11:29:13.997Z,100405.28
2019-05-01T11:32:01.872Z,100409.27
2019-05-01T11:35:01.916Z,100402.14
2019-05-01T11:38:07.785Z,100403.84
2019-05-01T11:40:42.464Z,100403.84
2019-05-01T11:43:11.388Z,100403.02
2019-05-01T11:45:40.294Z,100398.41
2019-05-01T11:48:09.111Z,100401.08
2019-05-01T11:50:38.357Z,100393.95
2019-05-01T11:53:07.149Z,100397.84
2019-05-01T11:55:36.038Z,100392.02
2019-05-01T11:58:04.916Z,100395.91
2019-05-01T12:00:34.201Z,100391.44
2019-05-01T12:03:03.173Z,100394.00
2019-05-01T12:05:32.179Z,100394.77
2019-05-01T12:08:01.175Z,100392.56
2019-05-01T12:10:30.145Z,100383.13
2019-05-01T12:12:59.188Z,100385.80
2019-05-01T12:15:28.192Z,100376.00
2019-05-01T12:17:57.201Z,100378.06
2019-05-01T12:20:26.250Z,100372.27
2019-05-01T12:22:55.258Z,100376.16
2019-05-01T12:25:24.289Z,100368.53
2019-05-01T12:27:53.220Z,100361.39
2019-05-01T12:30:22.334Z,100364.93
2019-05-01T12:32:51.284Z,100370.16
2019-05-01T12:35:20.353Z,100358.52
2019-05-01T12:37:49.677Z,100352.22
2019-05-01T12:40:19.721Z,100353.45
2019-05-01T12:42:48.844Z,100345.95
2019-05-01T12:45:17.760Z,100345.84
2019-05-01T12:48:05.672Z,100343.91
2019-05-01T12:50:34.594Z,100335.91
2019-05-01T12:53:13.260Z,100336.67
2019-05-01T12:56:16.192Z,100331.23
2019-05-01T12:58:50.108Z,100328.56
2019-05-01T13:01:19.182Z,100323.98
2019-05-01T13:03:48.028Z,100325.58
2019-05-01T13:06:16.921Z,100322.91
2019-05-01T13:08:45.849Z,100321.00
2019-05-01T13:11:14.889Z,100323.56
2019-05-01T13:13:43.809Z,100316.30
2019-05-01T13:16:12.780Z,100313.62
2019-05-01T13:18:41.561Z,100310.85
2019-05-01T13:21:10.445Z,100305.95
2019-05-01T13:23:39.564Z,100307.06
2019-05-01T13:26:25.325Z,100302.95
2019-05-01T13:29:01.912Z,100297.87
2019-05-01T13:31:44.595Z,100299.11
2019-05-01T13:34:13.577Z,100294.89
2019-05-01T13:36:42.656Z,100285.45
2019-05-01T13:39:11.837Z,100289.23
2019-05-01T13:41:40.721Z,100286.45
2019-05-01T13:44:09.600Z,100281.37
2019-05-01T13:46:38.558Z,100274.13
2019-05-01T13:49:07.617Z,100273.91
2019-05-01T13:51:36.674Z,100273.69
2019-05-01T13:54:06.553Z,100271.77
2019-05-01T13:56:35.725Z,100270.69
2019-05-01T13:59:06.716Z,100261.60
2019-05-01T14:01:35.620Z,100267.48
2019-05-01T14:04:04.601Z,100260.80
2019-05-01T14:06:33.438Z,100257.80
2019-05-01T14:09:02.616Z,100250.05
2019-05-01T14:11:31.775Z,100245.82
2019-05-01T14:14:00.767Z,100241.13
2019-05-01T14:16:29.928Z,100245.77
2019-05-01T14:18:58.841Z,100238.01
2019-05-01T14:21:37.553Z,100234.64
2019-05-01T14:24:37.873Z,100240.98
2019-05-01T14:27:07.849Z,100232.35
2019-05-01T14:29:36.942Z,100236.02
2019-05-01T14:32:05.953Z,100226.45
2019-05-01T14:34:35.212Z,100230.62
2019-05-01T14:37:04.195Z,100221.52
2019-05-01T14:39:33.049Z,100215.47
2019-05-01T14:42:02.019Z,100211.27
2019-05-01T14:44:36.963Z,100211.88
2019-05-01T14:47:01.653Z,100215.17
2019-05-01T14:49:30.533Z,100209.96
2019-05-01T14:51:59.410Z,100209.26
2019-05-01T14:54:28.422Z,100212.56
2019-05-01T14:56:57.533Z,100210.02
2019-05-01T14:59:26.434Z,100206.25
2019-05-01T15:01:55.596Z,100196.55
2019-05-01T15:04:24.480Z,100202.16
2019-05-01T15:06:53.556Z,100198.75
2019-05-01T15:09:22.752Z,100198.91
2019-05-01T15:11:51.944Z,100196.47
2019-05-01T15:14:33.073Z,100188.22
2019-05-01T15:17:24.224Z,100184.72
2019-05-01T15:20:00.433Z,100182.28
2019-05-01T15:22:29.411Z,100184.36
2019-05-01T15:24:58.211Z,100177.05
2019-05-01T15:27:27.084Z,100182.16
2019-05-01T15:29:56.176Z,100176.70
2019-05-01T15:32:25.238Z,100179.75
2019-05-01T15:34:54.217Z,100176.10
2019-05-01T15:37:23.213Z,100173.07
2019-05-01T15:39:57.250Z,100171.61
2019-05-01T15:42:43.784Z,100170.52
2019-05-01T15:45:12.684Z,100167.59
2019-05-01T15:47:41.642Z,100162.75
2019-05-01T15:50:10.636Z,100161.52
2019-05-01T15:52:39.782Z,100166.40
2019-05-01T15:55:08.802Z,100165.33
2019-05-01T15:57:37.850Z,100163.39
2019-05-01T16:00:07.374Z,100158.52
2019-05-01T16:02:36.369Z,100154.39
2019-05-01T16:05:05.728Z,100153.55
2019-05-01T16:07:34.588Z,100150.98
2019-05-01T16:10:05.385Z,100146.25
2019-05-01T16:12:42.161Z,100140.55
2019-05-01T16:15:17.662Z,100141.76
2019-05-01T16:17:46.534Z,100146.98
2019-05-01T16:20:17.022Z,100143.33
2019-05-01T16:22:46.291Z,100138.08
2019-05-01T16:25:15.210Z,100136.88
2019-05-01T16:27:44.392Z,100135.03
2019-05-01T16:30:15.270Z,100130.42
2019-05-01T16:32:44.170Z,100128.48
2019-05-01T16:35:13.065Z,100121.80
2019-05-01T16:37:41.999Z,100119.47
2019-05-01T16:40:29.541Z,100122.02
2019-05-01T16:42:58.623Z,100119.22
2019-05-01T16:45:27.509Z,100118.36
2019-05-01T16:47:56.786Z,100109.86
2019-05-01T16:50:26.074Z,100111.55
2019-05-01T16:52:55.092Z,100108.75
2019-05-01T16:55:24.077Z,100105.84
2019-05-01T16:57:53.078Z,100109.86
2019-05-01T17:00:39.519Z,100107.78
2019-05-01T17:03:16.663Z,100102.94
2019-05-01T17:05:56.618Z,100100.73
2019-05-01T17:08:56.462Z,100100.61
2019-05-01T17:11:28.391Z,100101.09
2019-05-01T17:13:57.889Z,100101.60
2019-05-01T17:16:26.899Z,100095.98
2019-05-01T17:18:55.747Z,100103.06
2019-05-01T17:21:24.660Z,100097.71
2019-05-01T17:23:53.682Z,100094.30
2019-05-01T17:26:22.669Z,100092.48
2019-05-01T17:28:51.635Z,100091.15
2019-05-01T17:31:20.716Z,100094.17
2019-05-01T17:33:50.897Z,100094.78
2019-05-01T17:36:20.824Z,100093.21
2019-05-01T17:38:50.132Z,100092.48
2019-05-01T17:41:22.681Z,100088.23
2019-05-01T17:43:50.800Z,100088.84
2019-05-01T17:46:19.919Z,100088.96
2019-05-01T17:48:48.894Z,100084.72
2019-05-01T17:51:19.889Z,100087.87
2019-05-01T17:53:48.680Z,100084.97
2019-05-01T17:56:23.542Z,100082.31
2019-05-01T17:58:48.236Z,100084.14
2019-05-01T18:01:44.840Z,100082.75
2019-05-01T18:04:25.634Z,100077.42
2019-05-01T18:06:54.496Z,100081.06
2019-05-01T18:09:23.512Z,100076.70
2019-05-01T18:11:53.601Z,100081.55
2019-05-01T18:14:41.967Z,100082.05
2019-05-01T18:17:10.885Z,100081.93
2019-05-01T18:19:39.883Z,100077.06
2019-05-01T18:22:27.058Z,100071.57
2019-05-01T18:25:20.763Z,100078.02
2019-05-01T18:28:08.848Z,100075.70
2019-05-01T18:30:40.092Z,100076.92
2019-05-01T18:33:09.027Z,100076.06
2019-05-01T18:35:37.948Z,100078.98
2019-05-01T18:38:25.923Z,100076.16
2019-05-01T18:40:59.205Z,100077.73
2019-05-01T18:43:32.167Z,100079.92
2019-05-01T18:45:59.846Z,100077.10
2019-05-01T18:48:28.784Z,100073.30
2019-05-01T18:50:57.795Z,100076.20
2019-05-01T18:53:26.894Z,100077.77
2019-05-01T18:55:56.000Z,100071.45
2019-05-01T18:58:24.932Z,100073.88
2019-05-01T19:00:53.930Z,100078.12
2019-05-01T19:03:23.120Z,100078.35
2019-05-01T19:05:52.274Z,100078.58
2019-05-01T19:08:21.265Z,100073.48
2019-05-01T19:10:50.217Z,100075.05
2019-05-01T19:13:19.375Z,100076.61
2019-05-01T19:15:48.263Z,100075.39
2019-05-01T19:18:17.317Z,100077.43
2019-05-01T19:20:58.937Z,100080.60
2019-05-01T19:23:17.176Z,100079.86
2019-05-01T19:25:46.186Z,100080.95
2019-05-01T19:28:15.833Z,100082.88
2019-05-01T19:31:05.531Z,100083.58
2019-05-01T19:33:34.440Z,100082.11
2019-05-01T19:36:08.077Z,100084.89
2019-05-01T19:38:35.014Z,100087.20
2019-05-01T19:41:08.792Z,100082.09
2019-05-01T19:43:35.744Z,100083.55
2019-05-01T19:46:06.148Z,100086.44
2019-05-01T19:48:35.293Z,100084.83
2019-05-01T19:51:04.197Z,100084.11
2019-05-01T19:53:33.462Z,100077.67
2019-05-01T19:56:02.430Z,100081.39
2019-05-01T19:58:31.457Z,100083.70
2019-05-01T20:01:04.243Z,100090.48
2019-05-01T20:03:36.117Z,100088.40
2019-05-01T20:06:05.673Z,100089.84
2019-05-01T20:08:34.438Z,100095.80
2019-05-01T20:11:03.512Z,100097.23
2019-05-01T20:13:32.512Z,100092.48
2019-05-01T20:16:01.765Z,100093.82
2019-05-01T20:18:30.586Z,100093.82
2019-05-01T20:20:59.471Z,100089.58
2019-05-01T20:23:31.367Z,100091.73
2019-05-01T20:25:59.284Z,100092.24
2019-05-01T20:28:28.495Z,100088.47
2019-05-01T20:30:57.612Z,100087.60
2019-05-01T20:33:26.624Z,100092.16
2019-05-01T20:35:55.731Z,100085.13
2019-05-01T20:38:24.659Z,100085.23
2019-05-01T20:40:53.672Z,100078.33
2019-05-01T20:43:22.946Z,100085.46
2019-05-01T20:45:51.798Z,100079.48
2019-05-01T20:48:23.753Z,100075.59
2019-05-01T20:50:51.401Z,100073.05
2019-05-01T20:53:20.496Z,100075.34
2019-05-01T20:55:58.058Z,100073.66
2019-05-01T20:58:27.083Z,100066.35
2019-05-01T21:00:59.983Z,100066.93
2019-05-01T21:03:29.095Z,100074.46
2019-05-01T21:06:29.228Z,100066.10
2019-05-01T21:09:08.254Z,100066.93
2019-05-01T21:11:42.157Z,100064.37
2019-05-01T21:14:19.809Z,100069.81
2019-05-01T21:16:43.959Z,100069.68
2019-05-01T21:19:13.012Z,100068.81
2019-05-01T21:21:43.447Z,100064.94
2019-05-01T21:24:13.991Z,100065.55
2019-05-01T21:26:43.455Z,100067.92
2019-05-01T21:29:34.442Z,100061.77
2019-05-01T21:32:03.625Z,100061.77
2019-05-01T21:34:33.402Z,100063.68
2019-05-01T21:37:02.486Z,100061.59
2019-05-01T21:39:33.328Z,100058.56
2019-05-01T21:42:06.618Z,100056.98
2019-05-01T21:44:33.287Z,100052.98
2019-05-01T21:47:03.935Z,100051.30
2019-05-01T21:49:33.337Z,100053.56
2019-05-01T21:52:03.772Z,100053.67
2019-05-01T21:54:33.065Z,100043.98
2019-05-01T21:57:02.086Z,100050.66
2019-05-01T21:59:31.021Z,100046.77
2019-05-01T22:02:00.155Z,100041.08
2019-05-01T22:04:32.008Z,100037.66
2019-05-01T22:06:59.629Z,100044.32
2019-05-01T22:09:28.537Z,100040.91
2019-05-01T22:11:57.481Z,100042.23
2019-05-01T22:14:39.434Z,100036.66
2019-05-01T22:17:14.614Z,100036.30
2019-05-01T22:19:43.545Z,100028.98
2019-05-01T22:22:22.564Z,100032.12
2019-05-01T22:25:02.468Z,100031.29
2019-05-01T22:27:53.283Z,100033.67
2019-05-01T22:30:28.672Z,100030.17
2019-05-01T22:32:58.044Z,100034.75
2019-05-01T22:35:47.992Z,100029.06
2019-05-01T22:38:17.278Z,100029.64
2019-05-01T22:41:06.775Z,100026.22
2019-05-01T22:43:34.348Z,100029.86
2019-05-01T22:46:04.187Z,100033.96
2019-05-01T22:48:33.127Z,100030.08
2019-05-01T22:51:08.887Z,100039.97
2019-05-01T22:53:37.779Z,100028.96
2019-05-01T22:56:06.701Z,100027.27
2019-05-01T22:58:35.845Z,100028.31
2019-05-01T23:01:05.520Z,100028.81
2019-05-01T23:03:52.872Z,100022.38
2019-05-01T23:06:21.859Z,100028.27
2019-05-01T23:08:50.809Z,100019.53
2019-05-01T23:11:20.616Z,100013.95
2019-05-01T23:13:50.924Z,100014.42
2019-05-01T23:16:21.729Z,100016.72
2019-05-01T23:18:52.064Z,100016.33
2019-05-01T23:21:21.236Z,100013.77
2019-05-01T23:23:50.272Z,100011.58
2019-05-01T23:26:19.272Z,100001.03
2019-05-01T23:28:48.304Z,100002.00
2019-05-01T23:31:17.284Z,100001.61
2019-05-01T23:33:50.644Z,99993.73
2019-05-01T23:36:23.316Z,100000.03
2019-05-01T23:38:47.468Z,99990.92
2019-05-01T23:41:16.554Z,99994.16
2019-05-01T23:43:45.559Z,99984.48
2019-05-01T23:46:14.605Z,99988.58
2019-05-01T23:48:43.513Z,99983.36
2019-05-01T23:51:12.317Z,99981.67
2019-05-01T23:53:44.231Z,99974.16
2019-05-01T23:56:12.161Z,99973.90
2019-05-01T23:58:41.229Z,99974.00
